sensor_id;sensor_type;location;lat;lon;timestamp;pressure;altitude;pressure_sealevel;temperature;humidity
56420;BME280;42323;52.170;7.538;2023-01-27T00:00:26;102060.44;;;2.74;91.44
56420;BME280;42323;52.170;7.538;2023-01-27T00:02:52;102066.59;;;2.72;91.68
56420;BME280;42323;52.170;7.538;2023-01-27T00:05:19;102078.44;;;2.76;91.45
56420;BME280;42323;52.170;7.538;2023-01-27T00:07:45;102068.47;;;2.70;91.44
56420;BME280;42323;52.170;7.538;2023-01-27T00:10:14;102070.31;;;2.68;91.63
56420;BME280;42323;52.170;7.538;2023-01-27T00:12:42;102068.81;;;2.64;91.89
56420;BME280;42323;52.170;7.538;2023-01-27T00:15:29;102074.81;;;2.64;91.56
56420;BME280;42323;52.170;7.538;2023-01-27T00:17:56;102077.69;;;2.60;91.38
56420;BME280;42323;52.170;7.538;2023-01-27T00:20:22;102085.25;;;2.63;91.61
56420;BME280;42323;52.170;7.538;2023-01-27T00:23:14;102079.59;;;2.56;91.95
56420;BME280;42323;52.170;7.538;2023-01-27T00:26:02;102081.53;;;2.53;92.02
56420;BME280;42323;52.170;7.538;2023-01-27T00:28:32;102075.63;;;2.50;92.89
56420;BME280;42323;52.170;7.538;2023-01-27T00:30:59;102076.13;;;2.41;93.12
56420;BME280;42323;52.170;7.538;2023-01-27T00:33:26;102077.88;;;2.41;93.25
56420;BME280;42323;52.170;7.538;2023-01-27T00:36:02;102076.38;;;2.37;92.99
56420;BME280;42323;52.170;7.538;2023-01-27T00:38:31;102087.41;;;2.40;94.00
56420;BME280;42323;52.170;7.538;2023-01-27T00:40:58;102083.97;;;2.40;94.27
56420;BME280;42323;52.170;7.538;2023-01-27T00:43:43;102086.00;;;2.35;93.61
56420;BME280;42323;52.170;7.538;2023-01-27T00:46:10;102084.16;;;2.37;94.15
56420;BME280;42323;52.170;7.538;2023-01-27T00:48:40;102082.59;;;2.34;94.62
56420;BME280;42323;52.170;7.538;2023-01-27T00:51:10;102083.16;;;2.39;94.23
56420;BME280;42323;52.170;7.538;2023-01-27T00:53:40;102053.25;;;2.19;94.23
56420;BME280;42323;52.170;7.538;2023-01-27T00:56:07;102075.56;;;2.36;94.24
56420;BME280;42323;52.170;7.538;2023-01-27T00:58:34;102089.06;;;2.41;94.80
56420;BME280;42323;52.170;7.538;2023-01-27T01:01:03;102087.50;;;2.39;94.88
56420;BME280;42323;52.170;7.538;2023-01-27T01:03:32;102096.34;;;2.35;94.66
56420;BME280;42323;52.170;7.538;2023-01-27T01:06:11;102097.19;;;2.35;95.49
56420;BME280;42323;52.170;7.538;2023-01-27T01:08:38;102083.00;;;2.42;95.47
56420;BME280;42323;52.170;7.538;2023-01-27T01:11:06;102087.91;;;2.47;94.68
56420;BME280;42323;52.170;7.538;2023-01-27T01:13:34;102071.97;;;2.39;94.95
56420;BME280;42323;52.170;7.538;2023-01-27T01:16:05;102084.81;;;2.40;94.93
56420;BME280;42323;52.170;7.538;2023-01-27T01:18:33;102079.06;;;2.35;95.67
56420;BME280;42323;52.170;7.538;2023-01-27T01:21:00;102086.66;;;2.38;95.89
56420;BME280;42323;52.170;7.538;2023-01-27T01:23:27;102079.22;;;2.32;96.26
56420;BME280;42323;52.170;7.538;2023-01-27T01:25:54;102091.06;;;2.36;96.48
56420;BME280;42323;52.170;7.538;2023-01-27T01:28:22;102098.84;;;2.36;96.90
56420;BME280;42323;52.170;7.538;2023-01-27T01:30:48;102100.50;;;2.37;96.32
56420;BME280;42323;52.170;7.538;2023-01-27T01:33:15;102103.09;;;2.37;97.12
56420;BME280;42323;52.170;7.538;2023-01-27T01:35:42;102103.09;;;2.37;96.21
56420;BME280;42323;52.170;7.538;2023-01-27T01:38:08;102107.16;;;2.41;96.43
56420;BME280;42323;52.170;7.538;2023-01-27T01:40:42;102099.25;;;2.44;96.30
56420;BME280;42323;52.170;7.538;2023-01-27T01:43:16;102099.53;;;2.54;95.87
56420;BME280;42323;52.170;7.538;2023-01-27T01:45:48;102097.56;;;2.59;95.43
56420;BME280;42323;52.170;7.538;2023-01-27T01:51:38;102091.34;;;2.62;95.23
56420;BME280;42323;52.170;7.538;2023-01-27T01:56:41;102105.47;;;2.56;95.72
56420;BME280;42323;52.170;7.538;2023-01-27T01:59:14;102084.47;;;2.46;95.61
56420;BME280;42323;52.170;7.538;2023-01-27T02:01:43;102103.72;;;2.57;95.62
56420;BME280;42323;52.170;7.538;2023-01-27T02:04:19;102087.81;;;2.48;95.57
56420;BME280;42323;52.170;7.538;2023-01-27T02:06:55;102100.47;;;2.53;96.06
56420;BME280;42323;52.170;7.538;2023-01-27T02:09:26;102099.75;;;2.51;96.09
56420;BME280;42323;52.170;7.538;2023-01-27T02:11:54;102103.06;;;2.53;95.91
56420;BME280;42323;52.170;7.538;2023-01-27T02:14:21;102102.22;;;2.53;96.20
56420;BME280;42323;52.170;7.538;2023-01-27T02:16:47;102093.75;;;2.50;95.85
56420;BME280;42323;52.170;7.538;2023-01-27T02:19:24;102101.72;;;2.46;96.32
56420;BME280;42323;52.170;7.538;2023-01-27T02:21:53;102109.25;;;2.50;97.01
56420;BME280;42323;52.170;7.538;2023-01-27T02:24:26;102105.38;;;2.58;96.56
56420;BME280;42323;52.170;7.538;2023-01-27T02:26:55;102096.97;;;2.54;96.84
56420;BME280;42323;52.170;7.538;2023-01-27T02:29:22;102102.22;;;2.53;96.71
56420;BME280;42323;52.170;7.538;2023-01-27T02:31:48;102103.06;;;2.53;96.73
56420;BME280;42323;52.170;7.538;2023-01-27T02:34:16;102103.47;;;2.45;97.05
56420;BME280;42323;52.170;7.538;2023-01-27T02:36:49;102107.00;;;2.44;97.86
56420;BME280;42323;52.170;7.538;2023-01-27T02:39:18;102101.81;;;2.44;98.24
56420;BME280;42323;52.170;7.538;2023-01-27T02:41:49;102098.50;;;2.42;98.01
56420;BME280;42323;52.170;7.538;2023-01-27T02:44:17;102086.66;;;2.38;98.02
56420;BME280;42323;52.170;7.538;2023-01-27T02:46:43;102085.75;;;2.39;97.75
56420;BME280;42323;52.170;7.538;2023-01-27T02:49:10;102088.91;;;2.44;97.36
56420;BME280;42323;52.170;7.538;2023-01-27T02:51:37;102092.16;;;2.48;97.07
56420;BME280;42323;52.170;7.538;2023-01-27T02:54:05;102094.72;;;2.48;97.49
56420;BME280;42323;52.170;7.538;2023-01-27T02:56:32;102100.38;;;2.55;97.34
56420;BME280;42323;52.170;7.538;2023-01-27T02:58:58;102094.72;;;2.48;97.14
56420;BME280;42323;52.170;7.538;2023-01-27T03:01:25;102090.38;;;2.48;97.80
56420;BME280;42323;52.170;7.538;2023-01-27T03:03:51;102089.47;;;2.49;97.52
56420;BME280;42323;52.170;7.538;2023-01-27T03:06:18;102093.91;;;2.47;97.30
56420;BME280;42323;52.170;7.538;2023-01-27T03:08:45;102092.25;;;2.46;98.00
56420;BME280;42323;52.170;7.538;2023-01-27T03:11:11;102094.81;;;2.46;97.63
56420;BME280;42323;52.170;7.538;2023-01-27T03:13:38;102088.31;;;2.39;97.77
56420;BME280;42323;52.170;7.538;2023-01-27T03:16:05;102100.34;;;2.40;97.98
56420;BME280;42323;52.170;7.538;2023-01-27T03:18:51;102107.53;;;2.35;98.68
56420;BME280;42323;52.170;7.538;2023-01-27T03:21:19;102095.94;;;2.26;98.49
56420;BME280;42323;52.170;7.538;2023-01-27T03:23:45;102091.19;;;2.19;98.44
56420;BME280;42323;52.170;7.538;2023-01-27T03:26:14;102103.69;;;2.11;98.73
56420;BME280;42323;52.170;7.538;2023-01-27T03:28:41;102111.13;;;2.01;98.90
56420;BME280;42323;52.170;7.538;2023-01-27T03:31:10;102108.38;;;1.88;99.07
56420;BME280;42323;52.170;7.538;2023-01-27T03:33:46;102092.69;;;1.75;99.85
56420;BME280;42323;52.170;7.538;2023-01-27T03:36:14;102101.38;;;1.74;99.74
56420;BME280;42323;52.170;7.538;2023-01-27T03:38:59;102095.88;;;1.65;100.00
56420;BME280;42323;52.170;7.538;2023-01-27T03:41:43;102103.25;;;1.55;100.00
56420;BME280;42323;52.170;7.538;2023-01-27T03:44:29;102112.84;;;1.53;100.00
56420;BME280;42323;52.170;7.538;2023-01-27T03:47:14;102111.94;;;1.54;100.00
56420;BME280;42323;52.170;7.538;2023-01-27T03:49:40;102115.19;;;1.58;100.00
56420;BME280;42323;52.170;7.538;2023-01-27T03:52:06;102124.69;;;1.57;100.00
56420;BME280;42323;52.170;7.538;2023-01-27T03:54:33;102121.78;;;1.63;100.00
56420;BME280;42323;52.170;7.538;2023-01-27T03:56:59;102110.19;;;1.55;100.00
56420;BME280;42323;52.170;7.538;2023-01-27T03:59:31;102115.69;;;1.48;100.00
56420;BME280;42323;52.170;7.538;2023-01-27T04:01:59;102115.09;;;1.43;100.00
56420;BME280;42323;52.170;7.538;2023-01-27T04:04:44;102109.94;;;1.59;100.00
56420;BME280;42323;52.170;7.538;2023-01-27T04:07:29;102120.53;;;1.70;100.00
56420;BME280;42323;52.170;7.538;2023-01-27T04:09:55;102110.75;;;1.60;100.00
56420;BME280;42323;52.170;7.538;2023-01-27T04:12:22;102125.72;;;1.70;100.00
56420;BME280;42323;52.170;7.538;2023-01-27T04:14:48;102122.28;;;1.70;100.00
56420;BME280;42323;52.170;7.538;2023-01-27T04:17:17;102116.88;;;1.74;100.00
56420;BME280;42323;52.170;7.538;2023-01-27T04:19:44;102117.47;;;1.80;100.00
56420;BME280;42323;52.170;7.538;2023-01-27T04:22:12;102121.81;;;1.79;100.00
56420;BME280;42323;52.170;7.538;2023-01-27T04:24:39;102122.78;;;1.76;100.00
56420;BME280;42323;52.170;7.538;2023-01-27T04:27:08;102122.97;;;1.73;100.00
56420;BME280;42323;52.170;7.538;2023-01-27T04:29:37;102121.53;;;1.68;100.00
56420;BME280;42323;52.170;7.538;2023-01-27T04:32:07;102117.81;;;1.73;100.00
56420;BME280;42323;52.170;7.538;2023-01-27T04:34:35;102120.13;;;1.78;100.00
56420;BME280;42323;52.170;7.538;2023-01-27T04:37:02;102122.63;;;1.80;100.00
56420;BME280;42323;52.170;7.538;2023-01-27T04:39:30;102114.19;;;1.76;100.00
56420;BME280;42323;52.170;7.538;2023-01-27T04:41:57;102125.13;;;1.81;100.00
56420;BME280;42323;52.170;7.538;2023-01-27T04:44:23;102125.97;;;1.82;100.00
56420;BME280;42323;52.170;7.538;2023-01-27T04:46:51;102133.06;;;1.78;100.00
56420;BME280;42323;52.170;7.538;2023-01-27T04:49:19;102128.53;;;1.66;100.00
56420;BME280;42323;52.170;7.538;2023-01-27T04:51:45;102128.94;;;1.58;100.00
56420;BME280;42323;52.170;7.538;2023-01-27T04:54:12;102136.19;;;1.52;100.00
56420;BME280;42323;52.170;7.538;2023-01-27T04:56:52;102130.59;;;1.43;100.00
56420;BME280;42323;52.170;7.538;2023-01-27T04:59:18;102131.13;;;1.33;100.00
56420;BME280;42323;52.170;7.538;2023-01-27T05:01:45;102135.22;;;1.37;100.00
56420;BME280;42323;52.170;7.538;2023-01-27T05:04:11;102130.44;;;1.29;100.00
56420;BME280;42323;52.170;7.538;2023-01-27T05:06:38;102138.72;;;1.36;100.00
56420;BME280;42323;52.170;7.538;2023-01-27T05:09:04;102133.69;;;1.33;100.00
56420;BME280;42323;52.170;7.538;2023-01-27T05:11:31;102140.22;;;1.40;100.00
56420;BME280;42323;52.170;7.538;2023-01-27T05:13:57;102136.47;;;1.45;100.00
56420;BME280;42323;52.170;7.538;2023-01-27T05:16:23;102138.00;;;1.49;100.00
56420;BME280;42323;52.170;7.538;2023-01-27T05:18:52;102130.59;;;1.43;100.00
56420;BME280;42323;52.170;7.538;2023-01-27T05:21:21;102157.25;;;1.60;100.00
56420;BME280;42323;52.170;7.538;2023-01-27T05:23:48;102156.38;;;1.61;100.00
56420;BME280;42323;52.170;7.538;2023-01-27T05:26:18;102156.28;;;1.62;100.00
56420;BME280;42323;52.170;7.538;2023-01-27T05:28:46;102158.03;;;1.62;100.00
56420;BME280;42323;52.170;7.538;2023-01-27T05:31:18;102150.38;;;1.60;100.00
56420;BME280;42323;52.170;7.538;2023-01-27T05:33:47;102148.53;;;1.62;100.00
56420;BME280;42323;52.170;7.538;2023-01-27T05:36:15;102152.22;;;1.74;100.00
56420;BME280;42323;52.170;7.538;2023-01-27T05:38:42;102148.81;;;1.73;100.00
56420;BME280;42323;52.170;7.538;2023-01-27T05:41:10;102155.28;;;1.81;100.00
56420;BME280;42323;52.170;7.538;2023-01-27T05:43:38;102163.22;;;1.78;100.00
56420;BME280;42323;52.170;7.538;2023-01-27T05:46:11;102157.44;;;1.72;100.00
56420;BME280;42323;52.170;7.538;2023-01-27T05:48:43;102163.47;;;1.73;100.00
56420;BME280;42323;52.170;7.538;2023-01-27T05:51:11;102155.78;;;1.71;100.00
56420;BME280;42323;52.170;7.538;2023-01-27T05:53:41;102166.22;;;1.70;100.00
56420;BME280;42323;52.170;7.538;2023-01-27T05:56:09;102177.38;;;1.70;100.00
56420;BME280;42323;52.170;7.538;2023-01-27T05:58:37;102173.88;;;1.71;100.00
56420;BME280;42323;52.170;7.538;2023-01-27T06:01:07;102173.31;;;1.82;100.00
56420;BME280;42323;52.170;7.538;2023-01-27T06:03:35;102185.91;;;1.88;100.00
56420;BME280;42323;52.170;7.538;2023-01-27T06:06:02;102177.31;;;1.88;100.00
56420;BME280;42323;52.170;7.538;2023-01-27T06:08:29;102181.31;;;1.93;100.00
56420;BME280;42323;52.170;7.538;2023-01-27T06:10:57;102186.59;;;1.92;100.00
56420;BME280;42323;52.170;7.538;2023-01-27T06:13:23;102191.59;;;1.95;100.00
56420;BME280;42323;52.170;7.538;2023-01-27T06:15:50;102193.34;;;1.94;100.00
56420;BME280;42323;52.170;7.538;2023-01-27T06:18:18;102197.50;;;1.97;100.00
56420;BME280;42323;52.170;7.538;2023-01-27T06:20:48;102195.44;;;2.04;100.00
56420;BME280;42323;52.170;7.538;2023-01-27T06:23:16;102198.28;;;2.15;100.00
56420;BME280;42323;52.170;7.538;2023-01-27T06:25:45;102190.75;;;2.10;100.00
56420;BME280;42323;52.170;7.538;2023-01-27T06:28:12;102196.34;;;2.18;100.00
56420;BME280;42323;52.170;7.538;2023-01-27T06:30:54;102194.59;;;2.19;100.00
56420;BME280;42323;52.170;7.538;2023-01-27T06:33:22;102191.09;;;2.20;100.00
56420;BME280;42323;52.170;7.538;2023-01-27T06:35:48;102188.69;;;2.17;100.00
56420;BME280;42323;52.170;7.538;2023-01-27T06:38:15;102204.44;;;2.28;100.00
56420;BME280;42323;52.170;7.538;2023-01-27T06:40:41;102213.72;;;2.32;100.00
56420;BME280;42323;52.170;7.538;2023-01-27T06:43:11;102198.38;;;2.29;100.00
56420;BME280;42323;52.170;7.538;2023-01-27T06:45:38;102205.38;;;2.27;100.00
56420;BME280;42323;52.170;7.538;2023-01-27T06:48:05;102196.88;;;2.25;100.00
56420;BME280;42323;52.170;7.538;2023-01-27T06:50:33;102202.47;;;2.33;100.00
56420;BME280;42323;52.170;7.538;2023-01-27T06:53:02;102207.97;;;2.27;100.00
56420;BME280;42323;52.170;7.538;2023-01-27T06:55:29;102199.63;;;2.22;100.00
56420;BME280;42323;52.170;7.538;2023-01-27T06:57:56;102204.53;;;2.26;100.00
56420;BME280;42323;52.170;7.538;2023-01-27T07:00:22;102211.88;;;2.34;100.00
56420;BME280;42323;52.170;7.538;2023-01-27T07:02:49;102220.47;;;2.35;100.00
56420;BME280;42323;52.170;7.538;2023-01-27T07:05:16;102223.81;;;2.37;100.00
56420;BME280;42323;52.170;7.538;2023-01-27T07:07:42;102224.63;;;2.37;100.00
56420;BME280;42323;52.170;7.538;2023-01-27T07:10:09;102232.47;;;2.36;100.00
56420;BME280;42323;52.170;7.538;2023-01-27T07:12:36;102234.91;;;2.39;100.00
56420;BME280;42323;52.170;7.538;2023-01-27T07:15:04;102224.06;;;2.32;100.00
56420;BME280;42323;52.170;7.538;2023-01-27T07:17:31;102236.41;;;2.43;100.00
56420;BME280;42323;52.170;7.538;2023-01-27T07:19:58;102231.41;;;2.40;100.00
56420;BME280;42323;52.170;7.538;2023-01-27T07:22:25;102235.59;;;2.42;100.00
56420;BME280;42323;52.170;7.538;2023-01-27T07:24:51;102235.34;;;2.47;100.00
56420;BME280;42323;52.170;7.538;2023-01-27T07:27:20;102247.44;;;2.46;100.00
56420;BME280;42323;52.170;7.538;2023-01-27T07:29:46;102233.91;;;2.41;100.00
56420;BME280;42323;52.170;7.538;2023-01-27T07:32:12;102240.81;;;2.41;100.00
56420;BME280;42323;52.170;7.538;2023-01-27T07:34:39;102244.09;;;2.44;100.00
56420;BME280;42323;52.170;7.538;2023-01-27T07:37:06;102248.34;;;2.45;100.00
56420;BME280;42323;52.170;7.538;2023-01-27T07:39:32;102260.94;;;2.51;100.00
56420;BME280;42323;52.170;7.538;2023-01-27T07:41:59;102261.09;;;2.48;100.00
56420;BME280;42323;52.170;7.538;2023-01-27T07:44:28;102264.22;;;2.55;100.00
56420;BME280;42323;52.170;7.538;2023-01-27T07:46:57;102273.63;;;2.56;100.00
56420;BME280;42323;52.170;7.538;2023-01-27T07:49:24;102257.44;;;2.53;100.00
56420;BME280;42323;52.170;7.538;2023-01-27T07:51:52;102267.53;;;2.57;100.00
56420;BME280;42323;52.170;7.538;2023-01-27T07:54:19;102275.81;;;2.64;99.78
56420;BME280;42323;52.170;7.538;2023-01-27T07:56:45;102277.13;;;2.71;99.13
56420;BME280;42323;52.170;7.538;2023-01-27T07:59:12;102279.41;;;2.77;98.56
56420;BME280;42323;52.170;7.538;2023-01-27T08:01:38;102285.47;;;2.76;98.41
56420;BME280;42323;52.170;7.538;2023-01-27T08:04:07;102285.66;;;2.73;97.88
56420;BME280;42323;52.170;7.538;2023-01-27T08:06:33;102288.41;;;2.70;98.47
56420;BME280;42323;52.170;7.538;2023-01-27T08:09:00;102296.91;;;2.72;98.40
56420;BME280;42323;52.170;7.538;2023-01-27T08:11:26;102297.66;;;2.74;98.42
56420;BME280;42323;52.170;7.538;2023-01-27T08:13:53;102282.50;;;2.68;98.06
56420;BME280;42323;52.170;7.538;2023-01-27T08:16:19;102285.56;;;2.74;98.03
56420;BME280;42323;52.170;7.538;2023-01-27T08:18:46;102288.56;;;2.83;97.74
56420;BME280;42323;52.170;7.538;2023-01-27T08:21:12;102296.06;;;2.87;97.02
56420;BME280;42323;52.170;7.538;2023-01-27T08:23:39;102288.06;;;2.76;96.84
56420;BME280;42323;52.170;7.538;2023-01-27T08:26:06;102294.00;;;2.78;96.74
56420;BME280;42323;52.170;7.538;2023-01-27T08:28:34;102298.81;;;2.84;96.89
56420;BME280;42323;52.170;7.538;2023-01-27T08:33:36;102306.28;;;2.90;95.75
56420;BME280;42323;52.170;7.538;2023-01-27T08:36:07;102301.25;;;2.87;95.99
56420;BME280;42323;52.170;7.538;2023-01-27T08:38:34;102294.56;;;2.83;95.85
56420;BME280;42323;52.170;7.538;2023-01-27T08:41:08;102305.44;;;2.90;95.73
56420;BME280;42323;52.170;7.538;2023-01-27T08:43:35;102302.50;;;2.96;95.86
56420;BME280;42323;52.170;7.538;2023-01-27T08:46:01;102312.84;;;2.96;95.90
56420;BME280;42323;52.170;7.538;2023-01-27T08:48:30;102304.34;;;2.94;95.81
56420;BME280;42323;52.170;7.538;2023-01-27T08:50:57;102306.94;;;2.94;95.42
56420;BME280;42323;52.170;7.538;2023-01-27T08:53:25;102305.84;;;2.98;95.47
56420;BME280;42323;52.170;7.538;2023-01-27T08:55:55;102294.81;;;2.94;95.32
56420;BME280;42323;52.170;7.538;2023-01-27T08:58:22;102307.16;;;3.05;94.22
56420;BME280;42323;52.170;7.538;2023-01-27T09:00:48;102303.47;;;3.09;93.27
56420;BME280;42323;52.170;7.538;2023-01-27T09:03:16;102304.31;;;3.10;93.21
56420;BME280;42323;52.170;7.538;2023-01-27T09:05:42;102318.50;;;3.18;92.74
56420;BME280;42323;52.170;7.538;2023-01-27T09:08:09;102317.66;;;3.18;92.30
56420;BME280;42323;52.170;7.538;2023-01-27T09:10:37;102326.38;;;3.17;92.35
56420;BME280;42323;52.170;7.538;2023-01-27T09:13:05;102334.13;;;3.17;92.17
56420;BME280;42323;52.170;7.538;2023-01-27T09:15:36;102331.38;;;3.20;91.36
56420;BME280;42323;52.170;7.538;2023-01-27T09:18:04;102341.22;;;3.29;91.16
56420;BME280;42323;52.170;7.538;2023-01-27T09:20:32;102328.06;;;3.32;90.15
56420;BME280;42323;52.170;7.538;2023-01-27T09:22:59;102330.50;;;3.35;89.80
56420;BME280;42323;52.170;7.538;2023-01-27T09:25:26;102341.53;;;3.39;89.06
56420;BME280;42323;52.170;7.538;2023-01-27T09:27:54;102333.84;;;3.37;89.63
56420;BME280;42323;52.170;7.538;2023-01-27T09:30:21;102342.47;;;3.38;89.24
56420;BME280;42323;52.170;7.538;2023-01-27T09:32:48;102333.94;;;3.36;89.71
56420;BME280;42323;52.170;7.538;2023-01-27T09:35:15;102345.72;;;3.41;89.69
56420;BME280;42323;52.170;7.538;2023-01-27T09:37:48;102343.50;;;3.49;88.55
56420;BME280;42323;52.170;7.538;2023-01-27T09:40:32;102340.75;;;3.52;87.83
56420;BME280;42323;52.170;7.538;2023-01-27T09:43:36;102354.38;;;3.56;87.73
56420;BME280;42323;52.170;7.538;2023-01-27T09:49:35;102353.03;;;3.49;88.34
56420;BME280;42323;52.170;7.538;2023-01-27T09:57:41;102363.47;;;3.63;86.89
56420;BME280;42323;52.170;7.538;2023-01-27T10:00:27;102362.44;;;3.66;87.46
56420;BME280;42323;52.170;7.538;2023-01-27T10:11:52;102368.13;;;3.72;86.37
56420;BME280;42323;52.170;7.538;2023-01-27T10:14:37;102364.59;;;3.73;86.58
56420;BME280;42323;52.170;7.538;2023-01-27T10:17:22;102354.78;;;3.78;86.04
56420;BME280;42323;52.170;7.538;2023-01-27T10:20:25;102361.63;;;3.80;86.43
56420;BME280;42323;52.170;7.538;2023-01-27T10:28:57;102354.13;;;3.75;86.35
56420;BME280;42323;52.170;7.538;2023-01-27T10:31:41;102362.28;;;3.83;86.61
56420;BME280;42323;52.170;7.538;2023-01-27T10:34:27;102362.28;;;3.83;86.61
56420;BME280;42323;52.170;7.538;2023-01-27T10:39:55;102346.88;;;3.96;86.35
56420;BME280;42323;52.170;7.538;2023-01-27T10:42:46;102357.88;;;3.99;85.65
56420;BME280;42323;52.170;7.538;2023-01-27T10:50:42;102361.41;;;3.98;85.87
56420;BME280;42323;52.170;7.538;2023-01-27T10:53:18;102353.53;;;4.14;84.30
56420;BME280;42323;52.170;7.538;2023-01-27T11:00:59;102354.66;;;4.53;80.10
56420;BME280;42323;52.170;7.538;2023-01-27T11:03:51;102351.91;;;4.97;78.79
56420;BME280;42323;52.170;7.538;2023-01-27T11:06:26;102352.28;;;5.06;78.42
56420;BME280;42323;52.170;7.538;2023-01-27T11:09:04;102342.78;;;5.04;78.08
56420;BME280;42323;52.170;7.538;2023-01-27T11:11:33;102345.97;;;4.95;77.44
56420;BME280;42323;52.170;7.538;2023-01-27T11:14:21;102351.47;;;4.91;77.88
56420;BME280;42323;52.170;7.538;2023-01-27T11:16:53;102345.19;;;4.81;77.02
56420;BME280;42323;52.170;7.538;2023-01-27T11:19:44;102344.81;;;4.72;77.88
56420;BME280;42323;52.170;7.538;2023-01-27T11:22:19;102348.25;;;4.73;78.42
56420;BME280;42323;52.170;7.538;2023-01-27T11:24:51;102336.56;;;4.66;78.58
56420;BME280;42323;52.170;7.538;2023-01-27T11:27:30;102345.56;;;4.60;79.26
56420;BME280;42323;52.170;7.538;2023-01-27T11:30:02;102346.81;;;4.55;79.90
56420;BME280;42323;52.170;7.538;2023-01-27T11:35:22;102344.78;;;4.45;80.17
56420;BME280;42323;52.170;7.538;2023-01-27T11:37:50;102334.03;;;4.37;80.28
56420;BME280;42323;52.170;7.538;2023-01-27T11:40:28;102341.25;;;4.32;80.35
56420;BME280;42323;52.170;7.538;2023-01-27T11:42:56;102354.75;;;4.23;80.97
56420;BME280;42323;52.170;7.538;2023-01-27T11:45:24;102352.38;;;4.20;81.15
56420;BME280;42323;52.170;7.538;2023-01-27T11:47:55;102350.06;;;4.15;80.24
56420;BME280;42323;52.170;7.538;2023-01-27T11:50:27;102341.06;;;4.07;80.07
56420;BME280;42323;52.170;7.538;2023-01-27T11:53:02;102344.75;;;4.02;80.76
56420;BME280;42323;52.170;7.538;2023-01-27T11:55:35;102351.88;;;3.99;81.17
56420;BME280;42323;52.170;7.538;2023-01-27T11:58:12;102350.66;;;4.05;80.95
56420;BME280;42323;52.170;7.538;2023-01-27T12:00:57;102347.91;;;4.08;79.76
56420;BME280;42323;52.170;7.538;2023-01-27T12:03:52;102341.13;;;4.05;80.19
56420;BME280;42323;52.170;7.538;2023-01-27T12:06:45;102341.97;;;4.06;80.36
56420;BME280;42323;52.170;7.538;2023-01-27T12:09:36;102342.72;;;4.08;80.05
56420;BME280;42323;52.170;7.538;2023-01-27T12:14:50;102334.94;;;4.08;79.88
56420;BME280;42323;52.170;7.538;2023-01-27T12:17:29;102334.00;;;4.09;79.97
56420;BME280;42323;52.170;7.538;2023-01-27T12:20:15;102341.13;;;4.05;80.51
56420;BME280;42323;52.170;7.538;2023-01-27T12:22:53;102323.44;;;3.97;80.85
56420;BME280;42323;52.170;7.538;2023-01-27T12:25:24;102327.50;;;4.01;80.66
56420;BME280;42323;52.170;7.538;2023-01-27T12:28:00;102328.44;;;4.00;80.60
56420;BME280;42323;52.170;7.538;2023-01-27T12:30:37;102327.59;;;4.00;80.52
56420;BME280;42323;52.170;7.538;2023-01-27T12:33:16;102324.06;;;4.01;80.71
56420;BME280;42323;52.170;7.538;2023-01-27T12:35:48;102321.59;;;3.99;80.39
56420;BME280;42323;52.170;7.538;2023-01-27T12:40:47;102321.69;;;3.98;80.48
56420;BME280;42323;52.170;7.538;2023-01-27T12:43:17;102325.13;;;3.98;80.59
56420;BME280;42323;52.170;7.538;2023-01-27T12:48:44;102313.69;;;3.87;81.60
56420;BME280;42323;52.170;7.538;2023-01-27T12:51:22;102319.53;;;3.90;81.65
56420;BME280;42323;52.170;7.538;2023-01-27T12:53:50;102313.59;;;3.88;81.81
56420;BME280;42323;52.170;7.538;2023-01-27T12:56:21;102308.63;;;3.85;82.13
56420;BME280;42323;52.170;7.538;2023-01-27T12:58:58;102315.28;;;3.89;81.85
56420;BME280;42323;52.170;7.538;2023-01-27T13:04:09;102315.19;;;3.91;81.36
56420;BME280;42323;52.170;7.538;2023-01-27T13:06:42;102311.09;;;3.87;81.34
56420;BME280;42323;52.170;7.538;2023-01-27T13:11:48;102324.63;;;3.92;79.96
56420;BME280;42323;52.170;7.538;2023-01-27T13:14:16;102313.59;;;3.88;79.46
56420;BME280;42323;52.170;7.538;2023-01-27T13:16:52;102327.97;;;3.94;78.51
56420;BME280;42323;52.170;7.538;2023-01-27T13:19:19;102318.72;;;3.90;78.50
56420;BME280;42323;52.170;7.538;2023-01-27T13:21:49;102319.38;;;3.93;77.96
56420;BME280;42323;52.170;7.538;2023-01-27T13:24:26;102314.47;;;3.89;78.10
56420;BME280;42323;52.170;7.538;2023-01-27T13:26:57;102313.81;;;3.85;78.71
56420;BME280;42323;52.170;7.538;2023-01-27T13:29:27;102323.41;;;3.83;79.45
56420;BME280;42323;52.170;7.538;2023-01-27T13:32:03;102321.66;;;3.84;78.63
56420;BME280;42323;52.170;7.538;2023-01-27T13:34:49;102325.16;;;3.83;79.57
56420;BME280;42323;52.170;7.538;2023-01-27T13:37:47;102320.91;;;3.82;79.69
56420;BME280;42323;52.170;7.538;2023-01-27T13:40:21;102326.00;;;3.83;79.58
56420;BME280;42323;52.170;7.538;2023-01-27T13:43:00;102324.72;;;3.76;80.05
56420;BME280;42323;52.170;7.538;2023-01-27T13:45:38;102334.22;;;3.75;80.02
56420;BME280;42323;52.170;7.538;2023-01-27T13:48:31;102335.09;;;3.76;80.30
56420;BME280;42323;52.170;7.538;2023-01-27T13:51:17;102326.97;;;3.66;80.47
56420;BME280;42323;52.170;7.538;2023-01-27T13:53:45;102334.75;;;3.66;80.33
56420;BME280;42323;52.170;7.538;2023-01-27T13:56:20;102340.78;;;3.67;81.23
56420;BME280;42323;52.170;7.538;2023-01-27T13:59:05;102336.53;;;3.66;81.46
56420;BME280;42323;52.170;7.538;2023-01-27T14:01:56;102338.38;;;3.64;81.62
56420;BME280;42323;52.170;7.538;2023-01-27T14:19:22;102346.69;;;3.55;82.28
56420;BME280;42323;52.170;7.538;2023-01-27T14:25:02;102345.19;;;3.50;82.04
56420;BME280;42323;52.170;7.538;2023-01-27T14:27:38;102342.50;;;3.52;81.14
56420;BME280;42323;52.170;7.538;2023-01-27T14:30:28;102341.28;;;3.43;81.05
56420;BME280;42323;52.170;7.538;2023-01-27T14:36:11;102355.56;;;3.50;81.23
56420;BME280;42323;52.170;7.538;2023-01-27T14:38:48;102357.13;;;3.53;79.98
56420;BME280;42323;52.170;7.538;2023-01-27T14:47:40;102354.22;;;3.43;80.77